M I D A S
Marine Information and Data Acquisition System
Tripno 585 of the Zeeleeuw from 2003-09-08 06:55:49 to 2003-09-08 15:36:28
Back to CruiseResearch ActivitiesStationsMapUnderway DataData graphs

EquipmentUnitsComment
TimeDGPSUTC
LatitudeDGPSDM.mWGS84
LongitudeDGPSDM.mWGS84
TemperatureSBE03/SBE38deg celciusITS90
ConductivitySBE21S/mITS90
SalinitySBE21 Practical Salinity Units
ChlorophylAChelsea fluorimeterg/lCalibrated in Aceton
Missing or incorrect values are displayed as -999
Sea surface data collected by the RV Zeeleeuw from 2003-09-08 06:55:49 to 2003-09-08 15:36:28
Time Latitude Longitude Temperature Conductivity Salinity ChlorophylA
2003-09-08 06:56:51 51°13.81 2°55.65 30.704464 1.221221 7.400737 -0.71383
2003-09-08 06:57:51 51°13.92 2°55.57 30.544951 1.220802 7.39914 -0.680121
2003-09-08 06:58:51 51°14.05 2°55.47 30.520915 1.220383 7.398115 -0.71383
2003-09-08 06:59:51 51°14.18 2°55.37 30.407112 1.219964 7.39709 -0.74754
2003-09-08 07:00:51 51°14.28 2°55.22 30.725926 1.219545 7.396409 -0.680121
2003-09-08 07:01:51 51°14.38 2°55.04 30.418482 1.219022 7.394239 -0.71383
2003-09-08 07:02:51 51°14.5 2°54.9 31.125403 1.218498 7.392069 -0.680121
2003-09-08 07:03:51 51°14.65 2°54.74 30.606234 1.218079 7.391272 -0.71383
2003-09-08 07:04:51 51°14.82 2°54.55 30.903753 1.217451 7.388414 -0.74754
2003-09-08 07:05:51 51°14.98 2°54.33 30.389772 1.216718 7.3859 -0.680121
2003-09-08 07:06:51 51°15.04 2°54 30.157728 1.215461 7.377892 -0.71383
2003-09-08 07:07:51 51°15.09 2°53.65 30.669951 1.215042 7.376633 -0.71383
2003-09-08 07:08:51 51°15.14 2°53.3 30.583057 1.214624 7.375947 -0.680121
2003-09-08 07:09:51 51°15.19 2°52.94 30.043097 1.214519 7.377092 -0.71383
2003-09-08 07:10:51 51°15.23 2°52.59 29.623515 1.21431 7.377436 -0.71383
2003-09-08 07:11:51 51°15.27 2°52.23 29.717358 1.2141 7.378468 -0.680121
2003-09-08 07:12:51 51°15.3 2°51.87 30.157975 1.213891 7.379501 -0.71383
2003-09-08 07:13:51 51°15.32 2°51.5 31.071668 1.209598 7.366895 -0.71383
2003-09-08 07:14:51 51°15.33 2°51.14 19.126452 3.580365 24.096054 2.825657
2003-09-08 07:15:51 51°15.31 2°50.77 19.057748 4.332057 31.748035 1.679537
2003-09-08 07:16:51 51°15.28 2°50.41 18.92248 4.419294 32.587386 1.612118
2003-09-08 07:17:51 51°15.24 2°50.05 18.965737 4.426467 32.631978 1.679537
2003-09-08 07:18:51 51°15.21 2°49.69 19.00556 4.44134 32.731606 1.780665
2003-09-08 07:19:51 51°15.18 2°49.33 19.035023 4.450623 32.781731 1.814375
2003-09-08 07:20:51 51°15.14 2°48.97 19.082761 4.470878 32.924412 1.881794
2003-09-08 07:21:51 51°15.11 2°48.61 19.117314 4.471299 32.892449 1.881794
2003-09-08 07:22:51 51°15.08 2°48.25 19.121248 4.496829 33.085678 1.848084
2003-09-08 07:23:51 51°15.05 2°47.89 19.140749 4.496301 33.078511 1.780665
2003-09-08 07:24:51 51°15.02 2°47.53 19.141446 4.499677 33.094438 1.780665
2003-09-08 07:25:51 51°14.99 2°47.18 19.136612 4.499466 33.095526 1.746956
2003-09-08 07:26:51 51°14.96 2°46.82 19.14206 4.500099 33.10356 1.780665
2003-09-08 07:27:51 51°14.93 2°46.47 19.146484 4.501365 33.108895 1.713247
2003-09-08 07:28:51 51°14.9 2°46.11 19.137882 4.502103 33.113843 1.713247
2003-09-08 07:29:51 51°14.87 2°45.75 19.119855 4.500838 33.112465 1.713247
2003-09-08 07:30:51 51°14.84 2°45.39 19.092559 4.499994 33.123612 1.645828
2003-09-08 07:31:51 51°14.81 2°45.03 19.100429 4.495985 33.106429 1.5447
2003-09-08 07:32:51 51°14.78 2°44.67 19.108995 4.499994 33.129271 1.51099
2003-09-08 07:33:51 51°14.74 2°44.29 19.10252 4.503265 33.153382 1.578409
2003-09-08 07:34:51 51°14.71 2°43.91 19.078661 4.504531 33.173447 1.578409
2003-09-08 07:35:51 51°14.67 2°43.52 19.047945 4.508118 33.224019 1.578409
2003-09-08 07:36:51 51°14.64 2°43.14 19.02534 4.516031 33.312079 1.612118
2003-09-08 07:37:51 51°14.6 2°42.76 19.004042 4.52426 33.398324 1.612118
2003-09-08 07:38:51 51°14.57 2°42.38 19.016846 4.531435 33.466785 1.679537
2003-09-08 07:39:51 51°14.54 2°42 19.047166 4.535866 33.490222 1.746956
2003-09-08 07:40:51 51°14.51 2°41.63 19.074233 4.537448 33.480938 1.679537
2003-09-08 07:41:51 51°14.48 2°41.26 19.102233 4.537869 33.459801 1.51099
2003-09-08 07:42:51 51°14.49 2°40.89 19.114528 4.539557 33.457145 1.443571
2003-09-08 07:43:51 51°14.54 2°40.53 19.130262 4.541984 33.466872 1.409862
2003-09-08 07:44:51 51°14.64 2°40.2 19.145952 4.54652 33.491138 1.308734
2003-09-08 07:45:51 51°14.78 2°39.92 19.157666 4.548419 33.496505 1.241315
2003-09-08 07:46:51 51°14.96 2°39.71 19.182193 4.54251 33.43239 1.207606
2003-09-08 07:47:51 51°15.17 2°39.62 19.183175 4.532698 33.337348 1.308734
2003-09-08 07:48:51 51°15.38 2°39.62 19.200736 4.524258 33.265039 1.376153
2003-09-08 07:49:51 51°15.6 2°39.66 19.266233 4.516451 33.187225 1.409862
2003-09-08 07:50:51 51°15.8 2°39.72 19.307316 4.518349 33.144687 1.51099
2003-09-08 07:51:51 51°16.01 2°39.8 19.325131 4.521302 33.144709 1.477281
2003-09-08 07:52:51 51°16.22 2°39.87 19.332607 4.523201 33.147901 1.5447
2003-09-08 07:53:51 51°16.43 2°39.94 19.34719 4.524361 33.151228 1.477281
2003-09-08 07:54:51 51°16.64 2°40.01 19.382674 4.531008 33.188837 1.578409
2003-09-08 07:55:51 51°16.85 2°40.1 19.413692 4.44028 32.412246 1.780665
2003-09-08 07:56:51 51°17.03 2°40.2 19.408755 4.557489 33.364153 1.949212
2003-09-08 07:57:51 51°17.13 2°40.23 19.419935 4.558649 33.371969 1.881794
2003-09-08 07:58:51 51°17.18 2°40.27 19.422914 4.560654 33.379351 1.814375
2003-09-08 07:59:51 51°17.22 2°40.32 19.428625 4.560442 33.3731 1.780665
2003-09-08 08:00:51 51°17.26 2°40.37 19.448082 4.561181 33.37576 1.746956
2003-09-08 08:01:51 51°17.3 2°40.4 19.465699 4.564451 33.386728 1.612118
2003-09-08 08:02:51 51°17.31 2°40.4 19.472752 4.566034 33.386695 1.578409
2003-09-08 08:03:51 51°17.31 2°40.39 19.484779 4.567405 33.391711 1.645828
2003-09-08 08:04:51 51°17.32 2°40.38 19.481884 4.568566 33.394999 1.612118
2003-09-08 08:05:51 51°17.32 2°40.37 19.491667 4.568566 33.394999 1.578409
2003-09-08 08:06:51 51°17.38 2°40.35 19.487387 4.569832 33.397457 1.612118
2003-09-08 08:07:51 51°17.45 2°40.44 19.484249 4.569515 33.398818 1.645828
2003-09-08 08:08:51 51°17.4 2°40.58 19.502427 4.570781 33.402404 1.713247
2003-09-08 08:09:51 51°17.41 2°40.69 19.532089 4.568987 33.377012 1.5447
2003-09-08 08:10:51 51°17.46 2°40.59 19.533555 4.571836 33.38114 1.746956
2003-09-08 08:11:51 51°17.44 2°40.49 19.517585 4.571836 33.383958 1.679537
2003-09-08 08:12:53 51°17.43 2°40.49 19.510903 4.571625 33.392381 1.713247
2003-09-08 08:13:55 51°17.42 2°40.47 19.503935 4.57057 33.389956 1.679537
2003-09-08 08:14:51 51°17.41 2°40.38 19.507643 4.569409 33.383284 1.645828
2003-09-08 08:15:51 51°17.49 2°40.41 19.492442 4.572469 33.407183 1.645828
2003-09-08 08:16:51 51°17.52 2°40.62 19.516811 4.572469 33.410006 1.713247
2003-09-08 08:17:51 51°17.58 2°40.73 19.540195 4.574895 33.411795 1.477281
2003-09-08 08:18:51 51°17.59 2°40.73 19.549277 4.577533 33.419822 1.51099
2003-09-08 08:19:51 51°17.6 2°40.71 19.550865 4.577849 33.416206 1.477281
2003-09-08 08:20:51 51°17.62 2°40.69 19.548381 4.578904 33.425394 1.477281
2003-09-08 08:21:51 51°17.7 2°40.78 19.546304 4.578482 33.419688 1.443571
2003-09-08 08:22:51 51°17.75 2°40.87 19.557666 4.578377 33.418826 1.51099
2003-09-08 08:23:51 51°17.74 2°40.88 19.556852 4.580592 33.430167 1.376153
2003-09-08 08:24:51 51°17.75 2°40.91 19.555182 4.5769 33.403373 1.477281
2003-09-08 08:25:51 51°17.8 2°40.95 19.568416 4.578693 33.417466 1.443571
2003-09-08 08:26:51 51°17.86 2°40.97 19.566095 4.581436 33.431425 1.308734
2003-09-08 08:27:51 51°17.86 2°40.98 19.566298 4.582175 33.436896 1.308734
2003-09-08 08:28:51 51°17.86 2°40.98 19.566828 4.581542 33.432851 1.477281
2003-09-08 08:29:51 51°17.91 2°41.01 19.570614 4.58228 33.435503 1.342443
2003-09-08 08:30:51 51°17.97 2°41.1 19.574156 4.582808 33.436994 1.275024
2003-09-08 08:31:51 51°18 2°41.13 19.574278 4.582808 33.434739 1.241315
2003-09-08 08:32:51 51°18 2°41.13 19.571388 4.583335 33.439048 1.477281
2003-09-08 08:33:49 51°18.01 2°41.14 19.574278 4.583546 33.442464 1.376153
2003-09-08 08:34:51 51°18.04 2°41.08 19.576558 4.58323 33.438186 1.409862
2003-09-08 08:35:51 51°18.06 2°40.93 19.572365 4.584918 33.45085 1.409862
2003-09-08 08:36:51 51°18.07 2°40.89 19.571795 4.585551 33.45715 1.275024
2003-09-08 08:37:51 51°18.07 2°40.89 19.561616 4.585551 33.462227 1.477281
2003-09-08 08:38:51 51°18.09 2°40.88 19.566461 4.584707 33.45928 1.409862
2003-09-08 08:39:51 51°18.09 2°40.8 19.573342 4.585762 33.462823 1.578409
2003-09-08 08:40:51 51°18.02 2°40.78 19.573505 4.585129 33.456522 1.477281
2003-09-08 08:41:51 51°17.95 2°40.79 19.572975 4.584812 33.449424 1.376153
2003-09-08 08:42:51 51°17.94 2°40.8 19.568578 4.584496 33.449658 1.409862
2003-09-08 08:43:51 51°17.94 2°40.81 19.572324 4.583968 33.44704 1.477281
2003-09-08 08:44:51 51°17.91 2°40.82 19.558195 4.583968 33.44704 1.443571
2003-09-08 08:45:51 51°17.86 2°40.74 19.582705 4.58323 33.444953 1.477281
2003-09-08 08:46:51 51°17.81 2°40.62 19.56471 4.584285 33.442295 1.51099
2003-09-08 08:47:51 51°17.79 2°40.59 19.561534 4.580592 33.42622 1.308734
2003-09-08 08:48:51 51°17.78 2°40.6 19.537995 4.580276 33.428708 1.51099
2003-09-08 08:49:51 51°17.77 2°40.6 19.524756 4.572574 33.383796 1.51099
2003-09-08 08:50:51 51°17.73 2°40.54 19.531193 4.576583 33.419392 1.578409
2003-09-08 08:51:51 51°17.68 2°40.45 19.525448 4.577533 33.418694 1.477281
2003-09-08 08:52:51 51°17.65 2°40.43 19.494643 4.574684 33.411762 1.477281
2003-09-08 08:53:51 51°17.64 2°40.44 19.473609 4.571942 33.406819 1.713247
2003-09-08 08:54:51 51°17.63 2°40.44 19.474016 4.570043 33.4037 1.746956
2003-09-08 08:55:51 51°17.6 2°40.42 19.494765 4.569621 33.401376 1.679537
2003-09-08 08:56:51 51°17.55 2°40.37 19.491912 4.57152 33.403366 1.679537
2003-09-08 08:57:51 51°17.53 2°40.35 19.490689 4.571414 33.402503 1.612118
2003-09-08 08:58:51 51°17.53 2°40.35 19.482455 4.570043 33.395232 1.645828
2003-09-08 08:59:51 51°17.49 2°40.28 19.478542 4.570465 33.403766 1.780665
2003-09-08 09:00:51 51°17.43 2°40.21 19.466025 4.569937 33.400014 1.645828
2003-09-08 09:01:51 51°17.38 2°40.19 19.458074 4.568882 33.400413 1.612118
2003-09-08 09:02:51 51°17.37 2°40.2 19.431644 4.567827 33.405899 1.780665
2003-09-08 09:03:51 51°17.33 2°40.17 19.448001 4.56635 33.402846 1.645828
2003-09-08 09:04:51 51°17.27 2°40.08 19.442535 4.568249 33.404269 1.746956
2003-09-08 09:05:51 51°17.23 2°40.03 19.4438 4.567722 33.408426 1.645828
2003-09-08 09:06:51 51°17.22 2°40.02 19.433561 4.567511 33.413482 1.746956
2003-09-08 09:07:51 51°17.22 2°40.02 19.437559 4.566562 33.411925 1.746956
2003-09-08 09:08:51 51°17.23 2°39.99 19.441434 4.567511 33.414613 1.746956
2003-09-08 09:09:51 51°17.28 2°39.91 19.44641 4.567828 33.412117 1.713247
2003-09-08 09:10:51 51°17.34 2°39.84 19.420017 4.5673 33.417975 1.713247
2003-09-08 09:11:51 51°17.35 2°39.85 19.404062 4.566456 33.413888 1.645828
2003-09-08 09:12:51 51°17.38 2°39.89 19.400879 4.565401 33.423352 1.713247
2003-09-08 09:13:51 51°17.46 2°39.96 19.41104 4.562764 33.404562 1.746956
2003-09-08 09:14:51 51°17.49 2°40.01 19.423893 4.565718 33.419719 1.612118
2003-09-08 09:15:51 51°17.5 2°40.05 19.381898 4.566034 33.427408 1.746956
2003-09-08 09:16:51 51°17.55 2°40.08 19.406633 4.56403 33.423433 1.814375
2003-09-08 09:17:51 51°17.63 2°40.12 19.453669 4.567089 33.423601 1.578409
2003-09-08 09:18:51 51°17.64 2°40.15 19.397654 4.570571 33.426665 1.578409
2003-09-08 09:19:51 51°17.65 2°40.18 19.378796 4.565824 33.440407 1.848084
2003-09-08 09:20:51 51°17.7 2°40.21 19.427442 4.564136 33.423166 1.848084
2003-09-08 09:21:51 51°17.75 2°40.24 19.44331 4.568566 33.419296 1.51099
2003-09-08 09:22:51 51°17.75 2°40.27 19.408469 4.568988 33.427843 1.746956
2003-09-08 09:23:51 51°17.78 2°40.3 19.431807 4.566878 33.431495 1.780665
2003-09-08 09:24:51 51°17.86 2°40.33 19.469328 4.563818 33.384934 1.612118
2003-09-08 09:25:51 51°17.92 2°40.4 19.49183 4.576267 33.432608 1.376153
2003-09-08 09:26:51 51°17.92 2°40.44 19.453588 4.576478 33.443938 1.645828
2003-09-08 09:27:51 51°17.93 2°40.48 19.433561 4.573314 33.451958 1.780665
2003-09-08 09:28:51 51°17.99 2°40.52 19.515222 4.571942 33.44695 1.713247
2003-09-08 09:29:51 51°18.04 2°40.56 19.464068 4.576373 33.434601 1.578409
2003-09-08 09:30:51 51°18.05 2°40.6 19.434989 4.572681 33.437157 1.713247
2003-09-08 09:31:51 51°18.06 2°40.63 19.439231 4.571098 33.442865 1.780665
2003-09-08 09:32:51 51°18.12 2°40.66 19.448164 4.571731 33.431645 1.713247
2003-09-08 09:33:51 51°18.17 2°40.7 19.463293 4.569515 33.413504 1.612118
2003-09-08 09:34:51 51°18.17 2°40.73 19.4263 4.570887 33.429257 1.814375
2003-09-08 09:35:51 51°18.17 2°40.76 19.418752 4.568144 33.429416 1.814375
2003-09-08 09:36:51 51°18.18 2°40.8 19.419894 4.567617 33.42566 1.848084
2003-09-08 09:37:51 51°18.19 2°40.83 19.425157 4.568039 33.42742 1.814375
2003-09-08 09:38:51 51°18.2 2°40.87 19.422465 4.56825 33.428583 1.780665
2003-09-08 09:39:51 51°18.23 2°40.91 19.43401 4.567828 33.423428 1.746956
2003-09-08 09:40:51 51°18.28 2°40.85 19.435805 4.56941 33.423947 1.848084
2003-09-08 09:41:51 51°18.26 2°40.74 19.447144 4.568883 33.421889 1.780665
2003-09-08 09:42:51 51°18.25 2°40.59 19.468064 4.571415 33.434708 1.848084
2003-09-08 09:43:51 51°18.24 2°40.46 19.494561 4.572891 33.427579 1.746956
2003-09-08 09:44:51 51°18.23 2°40.43 19.491586 4.575845 33.43085 1.713247
2003-09-08 09:45:51 51°18.22 2°40.44 19.506828 4.576689 33.437755 1.679537
2003-09-08 09:46:51 51°18.2 2°40.43 19.508703 4.577428 33.43589 1.645828
2003-09-08 09:47:51 51°18.13 2°40.38 19.563489 4.577533 33.427721 1.612118
2003-09-08 09:48:51 51°18.11 2°40.34 19.640484 4.582808 33.438685 1.409862
2003-09-08 09:49:51 51°18.1 2°40.35 19.656995 4.591036 33.441658 1.140187
2003-09-08 09:50:51 51°18.08 2°40.37 19.621121 4.593146 33.444242 1.173896
2003-09-08 09:51:51 51°18.04 2°40.34 19.548218 4.587133 33.449778 1.376153
2003-09-08 09:52:51 51°17.99 2°40.25 19.598131 4.583441 33.446677 1.5447
2003-09-08 09:53:51 51°18 2°40.18 19.596462 4.587344 33.440796 1.241315
2003-09-08 09:54:51 51°18 2°40.18 19.609891 4.586289 33.446267 1.308734
2003-09-08 09:55:51 51°18 2°40.19 19.676552 4.587028 33.444972 1.275024
2003-09-08 09:56:51 51°17.99 2°40.19 19.696184 4.594729 33.441964 1.140187
2003-09-08 09:57:51 51°17.93 2°40.12 19.586409 4.596311 33.440814 1.072768
2003-09-08 09:58:51 51°17.88 2°40.06 19.586409 4.586184 33.451042 1.443571
2003-09-08 09:59:51 51°17.85 2°40.04 19.669031 4.586817 33.446066 1.140187
2003-09-08 10:00:51 51°17.84 2°40.05 19.638288 4.591248 33.44563 1.106477
2003-09-08 10:01:51 51°17.82 2°40.05 19.68395 4.593885 33.444078 1.072768
2003-09-08 10:02:51 51°17.79 2°40.01 19.671307 4.596944 33.447095 1.173896
2003-09-08 10:03:51 51°17.75 2°39.93 19.683259 4.592303 33.453111 1.140187
2003-09-08 10:04:51 51°17.71 2°39.91 19.697931 4.597577 33.452254 0.93793
2003-09-08 10:05:51 51°17.7 2°39.94 19.665168 4.596311 33.457113 1.140187
2003-09-08 10:06:51 51°17.69 2°39.97 19.669153 4.594834 33.451257 1.241315
2003-09-08 10:07:51 51°17.66 2°39.94 19.661468 4.59167 33.45245 1.409862
2003-09-08 10:08:51 51°17.63 2°39.82 19.615344 4.590615 33.457355 1.275024
2003-09-08 10:09:51 51°17.59 2°39.75 19.718898 4.592197 33.448311 1.072768
2003-09-08 10:10:51 51°17.57 2°39.76 19.670006 4.599898 33.450378 0.97164
2003-09-08 10:11:51 51°17.55 2°39.76 19.682446 4.596523 33.46502 1.072768
2003-09-08 10:12:51 51°17.5 2°39.7 19.618843 4.593885 33.465458 1.308734
2003-09-08 10:13:51 51°17.45 2°39.65 19.682486 4.591564 33.457782 1.140187
2003-09-08 10:14:51 51°17.44 2°39.63 19.708781 4.596522 33.454897 1.140187
2003-09-08 10:15:51 51°17.44 2°39.63 19.700248 4.600004 33.466406 1.140187
2003-09-08 10:16:51 51°17.45 2°39.61 19.644511 4.599687 33.467199 1.173896
2003-09-08 10:17:51 51°17.42 2°39.55 19.713982 4.59916 33.466836 1.173896
2003-09-08 10:18:51 51°17.34 2°39.5 19.552372 4.596311 33.45149 1.477281
2003-09-08 10:19:51 51°17.31 2°39.47 19.515467 4.584285 33.462604 1.679537
2003-09-08 10:20:51 51°17.3 2°39.47 19.493746 4.577744 33.436784 1.746956
2003-09-08 10:21:51 51°17.3 2°39.47 19.468268 4.575845 33.440454 1.814375
2003-09-08 10:22:51 51°17.32 2°39.4 19.4668 4.574052 33.44047 1.915503
2003-09-08 10:23:51 51°17.35 2°39.3 19.533677 4.575951 33.437927 1.848084
2003-09-08 10:24:51 51°17.37 2°39.26 19.64996 4.584496 33.446838 1.477281
2003-09-08 10:25:51 51°17.4 2°39.27 19.67582 4.59589 33.473365 1.342443
2003-09-08 10:26:51 51°17.42 2°39.29 19.582094 4.597261 33.47273 1.477281
2003-09-08 10:27:51 51°17.44 2°39.32 19.650123 4.590615 33.468624 1.578409
2003-09-08 10:28:51 51°17.46 2°39.34 19.71707 4.595784 33.458436 1.51099
2003-09-08 10:29:51 51°17.48 2°39.36 19.758986 4.602641 33.456995 1.409862
2003-09-08 10:30:51 51°17.5 2°39.39 19.786875 4.605173 33.468626 1.409862
2003-09-08 10:31:51 51°17.51 2°39.41 19.796251 4.608338 33.465207 1.275024
2003-09-08 10:32:51 51°17.53 2°39.43 19.758458 4.608655 33.464978 1.308734
2003-09-08 10:33:51 51°17.54 2°39.46 19.728526 4.605806 33.462555 1.376153
2003-09-08 10:34:51 51°17.55 2°39.48 19.636701 4.599371 33.470805 1.612118
2003-09-08 10:35:51 51°17.56 2°39.51 19.563896 4.590298 33.445199 1.679537
2003-09-08 10:36:51 51°17.57 2°39.53 19.612089 4.588716 33.449176 1.645828
2003-09-08 10:37:51 51°17.58 2°39.56 19.622911 4.591037 33.459672 1.679537
2003-09-08 10:38:51 51°17.59 2°39.59 19.605578 4.591459 33.457484 1.679537
2003-09-08 10:39:51 51°17.59 2°39.62 19.607898 4.590509 33.459873 1.645828
2003-09-08 10:40:51 51°17.6 2°39.64 19.614896 4.590615 33.460735 1.679537
2003-09-08 10:41:51 51°17.6 2°39.68 19.613228 4.591037 33.460236 1.645828
2003-09-08 10:42:51 51°17.61 2°39.71 19.626166 4.591142 33.458844 1.645828
2003-09-08 10:43:51 51°17.61 2°39.74 19.667079 4.593041 33.455758 1.679537
2003-09-08 10:44:51 51°17.62 2°39.78 19.645568 4.595257 33.459198 1.612118
2003-09-08 10:45:51 51°17.62 2°39.81 19.744448 4.594835 33.458569 1.645828
2003-09-08 10:46:51 51°17.63 2°39.85 19.814023 4.605911 33.456122 1.376153
2003-09-08 10:47:51 51°17.63 2°39.88 19.716217 4.607916 33.468504 1.51099
2003-09-08 10:48:51 51°17.63 2°39.92 19.757768 4.601059 33.469381 1.578409
2003-09-08 10:49:51 51°17.64 2°39.96 19.72942 4.604646 33.4677 1.5447
2003-09-08 10:50:51 51°17.64 2°40 19.668217 4.60011 33.474012 1.578409
2003-09-08 10:51:51 51°17.64 2°40.04 19.803109 4.600004 33.463034 1.5447
2003-09-08 10:52:51 51°17.65 2°40.08 19.797224 4.610448 33.461629 1.241315
2003-09-08 10:53:51 51°17.65 2°40.13 19.731573 4.610237 33.47 1.342443
2003-09-08 10:54:51 51°17.66 2°40.17 19.688096 4.603485 33.468358 1.51099
2003-09-08 10:55:51 51°17.63 2°40.26 19.636539 4.596945 33.468461 1.5447
2003-09-08 10:56:51 51°17.5 2°40.23 19.553594 4.594096 33.479572 1.443571
2003-09-08 10:57:51 51°17.35 2°40.03 19.431603 4.582914 33.467203 1.915503
2003-09-08 10:58:51 51°17.22 2°39.77 19.396593 4.571626 33.447187 2.016631
2003-09-08 10:59:51 51°17.12 2°39.48 19.388348 4.571415 33.466415 1.915503
2003-09-08 11:00:51 51°17.09 2°39.21 19.38349 4.573104 33.487626 2.016631
2003-09-08 11:01:51 51°17.14 2°39.13 19.386062 4.57648 33.515311 1.814375
2003-09-08 11:02:51 51°17.16 2°39.16 19.384633 4.577113 33.523342 1.814375
2003-09-08 11:03:51 51°17.18 2°39.2 19.386511 4.577429 33.527642 1.746956
2003-09-08 11:04:51 51°17.19 2°39.23 19.384715 4.577007 33.525317 1.881794
2003-09-08 11:05:51 51°17.2 2°39.27 19.382592 4.577113 33.526182 1.848084
2003-09-08 11:06:51 51°17.22 2°39.31 19.387817 4.576691 33.522152 1.848084
2003-09-08 11:07:51 51°17.29 2°39.34 19.388715 4.576585 33.520151 1.949212
2003-09-08 11:08:51 51°17.34 2°39.24 19.41965 4.575636 33.507822 1.746956
2003-09-08 11:09:51 51°17.25 2°39.21 19.405572 4.576585 33.503122 1.612118
2003-09-08 11:10:51 51°17.17 2°39.44 19.389981 4.575108 33.497254 1.679537
2003-09-08 11:11:51 51°17.01 2°39.41 19.383939 4.577535 33.521124 1.814375
2003-09-08 11:12:51 51°16.97 2°39.14 19.377898 4.577218 33.526479 1.949212
2003-09-08 11:13:51 51°17.14 2°39.04 19.374672 4.580911 33.561887 1.746956
2003-09-08 11:14:51 51°17.21 2°39.28 19.39092 4.581017 33.558203 1.645828
2003-09-08 11:15:51 51°17.15 2°39.38 19.38545 4.580173 33.545027 1.713247
2003-09-08 11:16:51 51°17.11 2°39.28 19.38349 4.580806 33.555335 1.881794
2003-09-08 11:17:51 51°17.09 2°39.16 19.367037 4.581122 33.561912 1.915503
2003-09-08 11:18:51 51°17.08 2°39.14 19.374713 4.581967 33.57908 1.848084
2003-09-08 11:19:51 51°17.06 2°39.15 19.379408 4.582705 33.578311 1.982922
2003-09-08 11:20:51 51°17.05 2°39.17 19.370099 4.583127 33.585758 1.780665
2003-09-08 11:21:51 51°17.04 2°39.2 19.365608 4.583444 33.593481 1.881794
2003-09-08 11:22:51 51°17.03 2°39.23 19.356706 4.583233 33.589471 1.915503
2003-09-08 11:23:51 51°17 2°39.28 19.362995 4.582178 33.591633 1.949212
2003-09-08 11:24:51 51°16.98 2°39.47 19.3672 4.583866 33.598654 1.746956
2003-09-08 11:25:51 51°17.1 2°39.54 19.37602 4.582811 33.589994 1.915503
2003-09-08 11:26:51 51°17.25 2°39.43 19.385082 4.582178 33.576828 1.746956
2003-09-08 11:27:51 51°17.26 2°39.3 19.382511 4.581228 33.563915 1.713247
2003-09-08 11:28:51 51°17.25 2°39.29 19.377204 4.58165 33.569654 1.746956
2003-09-08 11:29:51 51°17.24 2°39.28 19.368711 4.58281 33.567798 1.814375
2003-09-08 11:30:51 51°17.23 2°39.28 19.367731 4.581334 33.575593 1.949212
2003-09-08 11:31:51 51°17.23 2°39.26 19.373611 4.582283 33.583956 1.915503
2003-09-08 11:32:51 51°17.22 2°39.25 19.362423 4.582389 33.583683 1.746956
2003-09-08 11:33:51 51°17.22 2°39.24 19.354827 4.582389 33.591656 2.016631
2003-09-08 11:34:51 51°17.22 2°39.22 19.349518 4.582494 33.596511 1.949212
2003-09-08 11:35:51 51°17.22 2°39.2 19.349477 4.583233 33.605995 1.915503
2003-09-08 11:36:51 51°17.23 2°39.18 19.341472 4.583022 33.604262 1.915503
2003-09-08 11:37:51 51°17.25 2°39.15 19.345801 4.582917 33.607386 1.915503
2003-09-08 11:38:51 51°17.26 2°39.13 19.342289 4.583233 33.608275 1.881794
2003-09-08 11:39:51 51°17.27 2°39.12 19.335753 4.582811 33.610512 1.915503
2003-09-08 11:40:51 51°17.29 2°39.12 19.331545 4.583128 33.61083 1.915503
2003-09-08 11:41:51 51°17.3 2°39.11 19.343106 4.583339 33.616556 1.915503
2003-09-08 11:42:51 51°17.32 2°39.12 19.333057 4.583233 33.615119 2.016631
2003-09-08 11:43:51 51°17.35 2°39.12 19.372059 4.583233 33.615689 1.848084
2003-09-08 11:44:51 51°17.42 2°39.18 19.34719 4.58355 33.610304 1.949212
2003-09-08 11:45:51 51°17.38 2°39.34 19.350457 4.584288 33.607247 1.746956
2003-09-08 11:46:51 51°17.31 2°39.3 19.350743 4.58376 33.605196 1.814375
2003-09-08 11:47:51 51°17.29 2°39.25 19.334854 4.58355 33.613726 1.915503
2003-09-08 11:48:51 51°17.28 2°39.25 19.328154 4.5826 33.613341 2.050341
2003-09-08 11:49:51 51°17.28 2°39.25 19.342861 4.582917 33.612519 1.949212
2003-09-08 11:50:51 51°17.28 2°39.25 19.353684 4.583866 33.615755 1.848084
2003-09-08 11:51:51 51°17.28 2°39.26 19.336488 4.584921 33.622138 1.915503
2003-09-08 11:52:51 51°17.28 2°39.26 19.336162 4.584077 33.623193 1.982922
2003-09-08 11:53:51 51°17.27 2°39.22 19.325662 4.583761 33.621734 1.949212
2003-09-08 11:54:51 51°17.36 2°39.15 19.359115 4.583972 33.62632 1.814375
2003-09-08 11:55:51 51°17.48 2°39.29 19.340614 4.582284 33.612453 1.780665
2003-09-08 11:56:51 51°17.5 2°39.45 19.349436 4.58355 33.615437 1.780665
2003-09-08 11:57:51 51°17.48 2°39.53 19.345801 4.584605 33.614406 1.814375
2003-09-08 11:58:51 51°17.48 2°39.55 19.343637 4.583866 33.611763 2.151469
2003-09-08 11:59:51 51°17.47 2°39.47 19.341758 4.583972 33.6132 2.151469
2003-09-08 12:00:51 51°17.47 2°39.34 19.340818 4.584077 33.615777 1.848084
2003-09-08 12:01:51 51°17.46 2°39.33 19.332975 4.583655 33.616874 1.982922
2003-09-08 12:02:51 51°17.46 2°39.33 19.326888 4.583444 33.620845 1.881794
2003-09-08 12:03:51 51°17.46 2°39.33 19.318267 4.5826 33.618476 1.982922
2003-09-08 12:04:51 51°17.45 2°39.34 19.320555 4.581862 33.618115 1.915503
2003-09-08 12:05:51 51°17.45 2°39.34 19.318553 4.581967 33.621837 1.915503
2003-09-08 12:06:51 51°17.44 2°39.35 19.315243 4.581967 33.619553 1.881794
2003-09-08 12:07:51 51°17.44 2°39.36 19.317491 4.583761 33.629724 1.881794
2003-09-08 12:08:51 51°17.44 2°39.38 19.31177 4.583233 33.63167 2.016631
2003-09-08 12:09:51 51°17.44 2°39.4 19.314467 4.582811 33.629915 2.117759
2003-09-08 12:10:51 51°17.45 2°39.42 19.311075 4.582495 33.627314 2.218888
2003-09-08 12:11:51 51°17.43 2°39.41 19.312873 4.582284 33.626151 2.117759
2003-09-08 12:12:51 51°17.42 2°39.4 19.318716 4.583233 33.63167 1.949212
2003-09-08 12:13:51 51°17.42 2°39.4 19.307847 4.583655 33.632854 1.949212
2003-09-08 12:14:51 51°17.42 2°39.4 19.31651 4.58355 33.635984 1.881794
2003-09-08 12:15:51 51°17.42 2°39.41 19.312056 4.584288 33.635771 1.881794
2003-09-08 12:16:51 51°17.42 2°39.42 19.300736 4.584183 33.642329 2.016631
2003-09-08 12:17:51 51°17.42 2°39.43 19.300204 4.583234 33.641952 2.050341
2003-09-08 12:18:51 51°17.4 2°39.45 19.302084 4.581546 33.632075 2.050341
2003-09-08 12:19:51 51°17.37 2°39.55 19.308051 4.583656 33.639136 1.881794
2003-09-08 12:20:51 51°17.41 2°39.79 19.319983 4.586188 33.658234 1.713247
2003-09-08 12:21:51 51°17.47 2°40.07 19.348415 4.584288 33.630062 1.780665
2003-09-08 12:22:51 51°17.47 2°40.2 19.360095 4.585871 33.621381 1.746956
2003-09-08 12:23:51 51°17.46 2°40.16 19.36422 4.586609 33.623453 2.08405
2003-09-08 12:24:51 51°17.46 2°40.14 19.366098 4.587031 33.626348 1.848084
2003-09-08 12:25:51 51°17.46 2°40.14 19.354051 4.587031 33.629199 2.050341
2003-09-08 12:26:51 51°17.47 2°40.14 19.354501 4.584393 33.608683 2.117759
2003-09-08 12:27:51 51°17.48 2°40.15 19.354378 4.585976 33.623388 2.050341
2003-09-08 12:28:51 51°17.48 2°40.16 19.371692 4.586609 33.624594 1.982922
2003-09-08 12:29:51 51°17.49 2°40.18 19.359891 4.586926 33.621491 1.982922
2003-09-08 12:30:51 51°17.49 2°40.19 19.355113 4.586609 33.625734 2.016631
2003-09-08 12:31:51 51°17.5 2°40.21 19.360177 4.583022 33.596853 2.050341
2003-09-08 12:32:51 51°17.52 2°40.3 19.364179 4.585976 33.615406 1.982922
2003-09-08 12:33:51 51°17.6 2°40.27 19.366384 4.585448 33.611075 2.185178
2003-09-08 12:34:51 51°17.58 2°40.13 19.359442 4.58587 33.61226 1.814375
2003-09-08 12:35:51 51°17.57 2°40.06 19.343432 4.585554 33.618782 2.016631
2003-09-08 12:36:51 51°17.57 2°40.05 19.335876 4.583761 33.613177 1.915503
2003-09-08 12:37:51 51°17.57 2°40.04 19.341349 4.585343 33.630739 2.016631
2003-09-08 12:38:51 51°17.57 2°40.04 19.334568 4.58471 33.624969 2.050341
2003-09-08 12:39:51 51°17.57 2°40.05 19.340246 4.586926 33.643739 2.08405
2003-09-08 12:40:51 51°17.57 2°40.05 19.333057 4.586609 33.641139 2.151469
2003-09-08 12:41:51 51°17.57 2°40.05 19.330769 4.586926 33.647736 2.185178
2003-09-08 12:42:51 51°17.58 2°40.05 19.340246 4.586188 33.645094 2.08405
2003-09-08 12:43:51 51°17.59 2°40.06 19.338122 4.587664 33.647522 2.08405
2003-09-08 12:44:51 51°17.6 2°40.07 19.33751 4.587665 33.650377 2.117759
2003-09-08 12:45:51 51°17.6 2°40.07 19.338286 4.586926 33.644881 2.117759
2003-09-08 12:46:51 51°17.62 2°40.08 19.340451 4.58777 33.64896 2.08405
2003-09-08 12:47:51 51°17.69 2°40 19.331464 4.587031 33.641181 2.08405
2003-09-08 12:48:51 51°17.82 2°39.82 19.329911 4.585977 33.647358 2.08405
2003-09-08 12:49:51 51°17.95 2°39.62 19.273593 4.584394 33.661213 2.050341
2003-09-08 12:50:51 51°18.04 2°39.54 19.335018 4.593679 33.719241 2.185178
2003-09-08 12:51:51 51°18.06 2°39.56 19.393491 4.605179 33.758784 2.016631
2003-09-08 12:52:51 51°18.08 2°39.57 19.338041 4.606867 33.775509 2.387435
2003-09-08 12:53:51 51°18.09 2°39.57 19.32362 4.601909 33.773147 2.353725
2003-09-08 12:54:51 51°18.09 2°39.58 19.330115 4.598849 33.760603 2.353725
2003-09-08 12:55:51 51°18.09 2°39.58 19.281074 4.597583 33.760512 2.218888
2003-09-08 12:56:51 51°18.08 2°39.59 19.306784 4.596845 33.765336 2.218888
2003-09-08 12:57:51 51°18.07 2°39.6 19.325907 4.598322 33.761998 2.185178
2003-09-08 12:58:51 51°18.06 2°39.62 19.375856 4.603597 33.778998 2.185178
2003-09-08 12:59:51 51°18.05 2°39.65 19.453833 4.613514 33.792875 1.848084
2003-09-08 13:00:51 51°18.04 2°39.68 19.313282 4.614463 33.805245 1.982922
2003-09-08 13:01:51 51°18.03 2°39.78 19.376714 4.60423 33.797392 2.08405
2003-09-08 13:02:51 51°18.09 2°39.95 19.394675 4.607817 33.795338 1.915503
2003-09-08 13:03:51 51°18.21 2°40.23 19.297016 4.599693 33.746342 2.016631
2003-09-08 13:04:51 51°18.37 2°40.37 19.302248 4.582812 33.645341 2.016631
2003-09-08 13:05:51 51°18.41 2°40.4 19.306621 4.583022 33.63222 1.814375
2003-09-08 13:06:51 51°18.39 2°40.42 19.302166 4.582179 33.630994 2.320016
2003-09-08 13:07:51 51°18.4 2°40.44 19.297262 4.581757 33.629239 2.151469
2003-09-08 13:08:51 51°18.41 2°40.46 19.296036 4.580807 33.623718 2.185178
2003-09-08 13:09:51 51°18.41 2°40.48 19.296853 4.580068 33.619361 2.185178
2003-09-08 13:10:51 51°18.42 2°40.5 19.298774 4.581018 33.62888 2.286306
2003-09-08 13:11:51 51°18.42 2°40.52 19.299837 4.581123 33.62632 2.286306
2003-09-08 13:12:51 51°18.43 2°40.54 19.301185 4.581229 33.624332 2.252597
2003-09-08 13:13:51 51°18.43 2°40.56 19.306008 4.581018 33.62374 2.185178
2003-09-08 13:14:51 51°18.44 2°40.59 19.309808 4.581651 33.625516 2.185178
2003-09-08 13:15:51 51°18.44 2°40.61 19.310912 4.581651 33.62209 2.185178
2003-09-08 13:16:51 51°18.44 2°40.63 19.307683 4.58144 33.622069 2.117759
2003-09-08 13:17:51 51°18.45 2°40.63 19.3094 4.581229 33.619764 2.117759
2003-09-08 13:18:51 51°18.46 2°40.63 19.308215 4.580701 33.61657 2.117759
2003-09-08 13:19:51 51°18.47 2°40.62 19.302779 4.581862 33.624966 2.016631
2003-09-08 13:20:51 51°18.49 2°40.6 19.299305 4.581018 33.624311 2.117759
2003-09-08 13:21:51 51°18.55 2°40.46 19.296935 4.582073 33.632983 2.218888
2003-09-08 13:22:51 51°18.71 2°40.29 19.35254 4.595156 33.69877 2.117759
2003-09-08 13:23:51 51°18.93 2°40.21 19.323906 4.594523 33.709009 2.286306
2003-09-08 13:24:51 51°19.06 2°40.27 19.310544 4.595894 33.724287 2.185178
2003-09-08 13:25:51 51°19.11 2°40.3 19.334977 4.595578 33.722258 2.050341
2003-09-08 13:26:51 51°19.12 2°40.31 19.320065 4.59505 33.721929 2.252597
2003-09-08 13:27:51 51°19.13 2°40.32 19.333833 4.593995 33.714401 2.387435
2003-09-08 13:28:51 51°19.14 2°40.32 19.325213 4.595156 33.715927 2.387435
2003-09-08 13:29:51 51°19.16 2°40.34 19.317409 4.595156 33.723941 2.353725
2003-09-08 13:30:51 51°19.18 2°40.36 19.317368 4.594206 33.722433 2.353725
2003-09-08 13:31:51 51°19.21 2°40.37 19.321903 4.594523 33.720455 2.387435
2003-09-08 13:32:51 51°19.23 2°40.37 19.319534 4.594628 33.722467 2.286306
2003-09-08 13:33:51 51°19.25 2°40.35 19.317654 4.594839 33.718477 2.286306
2003-09-08 13:34:51 51°19.25 2°40.31 19.340532 4.594523 33.721027 2.252597
2003-09-08 13:35:51 51°19.15 2°40.34 19.324845 4.597477 33.721269 1.881794
2003-09-08 13:36:51 51°19.12 2°40.37 19.316306 4.596739 33.736378 2.185178
2003-09-08 13:37:51 51°19.12 2°40.37 19.321291 4.595578 33.729128 2.218888
2003-09-08 13:38:51 51°19.12 2°40.37 19.312219 4.595262 33.728244 2.286306
2003-09-08 13:39:51 51°19.12 2°40.37 19.322884 4.59484 33.726492 2.185178
2003-09-08 13:40:51 51°19.12 2°40.36 19.324968 4.595261 33.721946 2.151469
2003-09-08 13:41:51 51°19.13 2°40.35 19.326357 4.595367 33.726248 2.218888
2003-09-08 13:42:51 51°19.13 2°40.35 19.312955 4.595894 33.724287 2.252597
2003-09-08 13:43:51 51°19.14 2°40.34 19.320147 4.595261 33.724808 2.252597
2003-09-08 13:44:51 51°19.15 2°40.33 19.321372 4.595367 33.72453 2.320016
2003-09-08 13:45:51 51°19.17 2°40.31 19.313486 4.595156 33.723941 2.286306
2003-09-08 13:46:51 51°19.25 2°40.31 19.333915 4.595684 33.729423 2.252597
2003-09-08 13:47:51 51°19.32 2°40.42 19.324151 4.598321 33.736215 2.151469
2003-09-08 13:48:51 51°19.38 2°40.52 19.318553 4.596211 33.733187 2.185178
2003-09-08 13:49:51 51°19.41 2°40.55 19.322721 4.594417 33.718442 2.218888
2003-09-08 13:50:51 51°19.43 2°40.56 19.319861 4.59505 33.723074 2.218888
2003-09-08 13:51:51 51°19.44 2°40.56 19.320065 4.594945 33.721634 2.286306
2003-09-08 13:52:51 51°19.45 2°40.56 19.320065 4.594734 33.720472 2.320016
2003-09-08 13:53:51 51°19.45 2°40.55 19.320841 4.594628 33.720749 2.286306
2003-09-08 13:54:51 51°19.46 2°40.54 19.320678 4.594734 33.719327 2.252597
2003-09-08 13:55:51 51°19.47 2°40.53 19.317409 4.594839 33.719622 2.353725
2003-09-08 13:56:51 51°19.48 2°40.53 19.315529 4.594523 33.72389 2.387435
2003-09-08 13:57:51 51°19.48 2°40.53 19.320759 4.594206 33.720715 2.320016
2003-09-08 13:58:51 51°19.53 2°40.63 19.332158 4.595472 33.723108 2.286306
2003-09-08 13:59:51 51°19.68 2°40.78 19.34188 4.595683 33.712253 2.185178
2003-09-08 14:00:51 51°19.85 2°40.93 19.35981 4.595789 33.709116 2.252597
2003-09-08 14:01:51 51°20 2°41.12 19.412917 4.595683 33.675689 2.387435
2003-09-08 14:02:51 51°20.06 2°41.21 19.424953 4.594944 33.654231 2.353725
2003-09-08 14:03:52 51°20.07 2°41.21 19.426463 4.594838 33.637985 2.286306
2003-09-08 14:04:52 51°20.08 2°41.14 19.41663 4.595049 33.636869 2.387435
2003-09-08 14:05:51 51°20.09 2°41.14 19.430135 4.593994 33.63505 2.353725
2003-09-08 14:06:51 51°20.09 2°41.14 19.424178 4.594205 33.62881 2.320016
2003-09-08 14:07:53 51°20.1 2°41.15 19.422057 4.594732 33.638828 2.421144
2003-09-08 14:08:53 51°20.1 2°41.16 19.413815 4.594627 33.637963 2.353725
2003-09-08 14:09:53 51°20.11 2°41.17 19.408388 4.5941 33.642749 2.387435
2003-09-08 14:10:53 51°20.11 2°41.18 19.411489 4.5941 33.643889 2.353725
2003-09-08 14:11:53 51°20.11 2°41.18 19.413733 4.594838 33.648237 2.286306
2003-09-08 14:12:53 51°20.12 2°41.19 19.419364 4.593994 33.639036 2.353725
2003-09-08 14:13:53 51°20.12 2°41.19 19.418874 4.593888 33.636462 2.387435
2003-09-08 14:14:53 51°20.12 2°41.24 19.425606 4.594416 33.63851 2.286306
2003-09-08 14:15:53 51°20.18 2°41.31 19.444289 4.594099 33.630222 2.421144
2003-09-08 14:16:53 51°20.26 2°41.3 19.484575 4.59431 33.608064 2.117759
2003-09-08 14:17:53 51°20.27 2°41.29 19.468227 4.597053 33.60724 2.353725
2003-09-08 14:18:51 51°20.27 2°41.28 19.450121 4.596209 33.621918 2.488563
2003-09-08 14:19:54 51°20.28 2°41.27 19.464924 4.595576 33.62526 2.454853
2003-09-08 14:20:54 51°20.29 2°41.26 19.471611 4.596209 33.617939 2.454853
2003-09-08 14:21:54 51°20.29 2°41.25 19.467493 4.597053 33.619738 2.421144
2003-09-08 14:22:54 51°20.3 2°41.23 19.469532 4.597264 33.626013 2.421144
2003-09-08 14:23:54 51°20.3 2°41.22 19.467941 4.597369 33.621762 2.421144
2003-09-08 14:24:54 51°20.3 2°41.21 19.457544 4.596525 33.619395 2.421144
2003-09-08 14:25:54 51°20.31 2°41.19 19.461173 4.595998 33.621326 2.421144
2003-09-08 14:26:54 51°20.31 2°41.18 19.467493 4.596209 33.621918 2.454853
2003-09-08 14:27:54 51°20.31 2°41.15 19.485472 4.596947 33.62001 2.454853
2003-09-08 14:28:54 51°20.39 2°41.14 19.500919 4.598635 33.612816 2.421144
2003-09-08 14:29:54 51°20.39 2°41.36 19.504261 4.602011 33.630232 2.050341
2003-09-08 14:30:54 51°20.33 2°41.68 19.551313 4.600112 33.595969 2.185178
2003-09-08 14:31:54 51°20.24 2°42 19.619209 4.600533 33.552436 2.050341
2003-09-08 14:32:54 51°20.13 2°42.3 19.651099 4.601482 33.540419 2.117759
2003-09-08 14:33:54 51°20.01 2°42.59 19.695899 4.598844 33.506479 1.746956
2003-09-08 14:34:54 51°19.89 2°42.89 19.723123 4.604224 33.488982 1.578409
2003-09-08 14:35:54 51°19.77 2°43.19 19.722067 4.603486 33.479594 1.612118
2003-09-08 14:36:54 51°19.66 2°43.49 19.643453 4.602641 33.461486 1.5447
2003-09-08 14:37:54 51°19.54 2°43.79 19.59459 4.594624 33.48275 1.814375
2003-09-08 14:38:52 51°19.43 2°44.09 19.626939 4.592303 33.471696 1.746956
2003-09-08 14:39:54 51°19.31 2°44.41 19.647601 4.595784 33.472504 1.915503
2003-09-08 14:40:54 51°19.2 2°44.7 19.503283 4.584285 33.442295 2.050341
2003-09-08 14:41:54 51°19.08 2°45 19.556607 4.571519 33.357718 2.050341
2003-09-08 14:42:54 51°18.96 2°45.29 19.560109 4.572573 33.3489 2.117759
2003-09-08 14:43:54 51°18.85 2°45.59 19.575744 4.572257 33.341257 2.151469
2003-09-08 14:44:54 51°18.73 2°45.89 19.633285 4.574261 33.339081 2.08405
2003-09-08 14:45:54 51°18.61 2°46.19 19.658052 4.575949 33.323112 1.713247
2003-09-08 14:46:54 51°18.5 2°46.49 19.610868 4.571728 33.275829 1.612118
2003-09-08 14:47:54 51°18.38 2°46.79 19.486246 4.552422 33.181617 1.5447
2003-09-08 14:48:54 51°18.26 2°47.09 19.433357 4.537863 33.137157 1.612118
2003-09-08 14:49:54 51°18.14 2°47.38 19.495906 4.526892 33.082723 1.679537
2003-09-08 14:50:54 51°18.03 2°47.67 19.319779 4.545143 33.192735 1.612118
2003-09-08 14:51:54 51°17.91 2°47.96 19.32938 4.549049 33.322089 1.477281
2003-09-08 14:52:54 51°17.8 2°48.26 19.318798 4.5596 33.432435 1.578409
2003-09-08 14:53:54 51°17.71 2°48.57 19.310094 4.564242 33.464298 1.645828
2003-09-08 14:54:54 51°17.62 2°48.89 19.290068 4.56171 33.456572 1.679537
2003-09-08 14:55:54 51°17.53 2°49.2 19.269708 4.554008 33.4166 1.713247
2003-09-08 14:56:54 51°17.44 2°49.52 19.264188 4.538077 33.287463 1.679537
2003-09-08 14:57:54 51°17.34 2°49.83 19.273633 4.532169 33.254216 1.780665
2003-09-08 14:58:54 51°17.26 2°50.15 19.349681 4.536495 33.273339 1.780665
2003-09-08 14:59:52 51°17.17 2°50.45 19.297916 4.542085 33.261614 1.814375
2003-09-08 15:00:54 51°17.07 2°50.77 19.333506 4.528265 33.178171 1.780665
2003-09-08 15:01:54 51°16.97 2°51.07 19.369691 4.530374 33.16958 1.814375
2003-09-08 15:02:54 51°16.83 2°51.34 19.349845 4.535016 33.173873 1.780665
2003-09-08 15:03:54 51°16.65 2°51.57 19.387654 4.52531 33.131458 1.780665
2003-09-08 15:04:54 51°16.49 2°51.8 19.244925 4.526365 33.132798 1.881794
2003-09-08 15:05:52 51°16.33 2°52.03 19.176993 4.499042 32.994667 1.713247
2003-09-08 15:06:54 51°16.16 2°52.28 18.988115 4.474779 32.878419 1.612118
2003-09-08 15:07:54 51°16 2°52.51 18.97822 4.447986 32.774033 1.342443
2003-09-08 15:08:54 51°15.82 2°52.72 19.056107 4.445876 32.726944 1.409862
2003-09-08 15:09:54 51°15.63 2°52.91 19.004165 4.439124 32.66746 1.443571
2003-09-08 15:10:54 51°15.44 2°53.09 18.910686 4.42942 32.644572 1.477281
2003-09-08 15:11:54 51°15.27 2°53.31 19.016272 4.419399 32.574844 1.578409
2003-09-08 15:12:54 51°15.1 2°53.53 19.066073 4.427521 32.592618 1.51099
2003-09-08 15:13:54 51°14.93 2°53.75 18.977399 4.438069 32.638126 1.477281
2003-09-08 15:14:54 51°14.78 2°54 18.933286 4.43459 32.718019 1.308734
2003-09-08 15:15:54 51°14.66 2°54.27 19.029361 4.395769 32.348597 1.780665
2003-09-08 15:16:54 51°14.55 2°54.55 19.130426 4.377942 32.187135 1.949212
2003-09-08 15:17:54 51°14.44 2°54.82 19.164586 4.382899 32.19977 1.881794
2003-09-08 15:18:54 51°14.35 2°55.07 19.094978 4.141801 30.249538 1.578409
2003-09-08 15:19:54 51°14.29 2°55.21 18.938627 4.146758 30.323573 1.342443
2003-09-08 15:20:54 51°14.24 2°55.28 18.890256 3.129093 22.198601 1.207606
2003-09-08 15:21:54 51°14.2 2°55.35 19.076324 2.924261 20.624259 1.308734
2003-09-08 15:22:54 51°14.15 2°55.39 18.936738 2.920998 20.58946 1.072768
2003-09-08 15:23:54 51°14.09 2°55.43 18.98286 2.766957 19.390406 1.241315
2003-09-08 15:24:54 51°14.04 2°55.46 23.69451 4.027289 29.227632 -0.680121
2003-09-08 15:25:54 51°13.93 2°55.54 23.665648 0.591295 3.099656 -0.71383
2003-09-08 15:26:54 51°13.82 2°55.62 22.41102 0.184924 0.894542 -0.680121
2003-09-08 15:27:54 51°13.75 2°55.72 22.512332 0.145168 0.697744 -0.680121
2003-09-08 15:28:54 51°13.69 2°55.83 22.272815 0.129249 0.618804 -0.680121
2003-09-08 15:29:54 51°13.65 2°55.94 21.522882 0.122383 0.5858 -0.71383
2003-09-08 15:30:54 51°13.62 2°56.04 22.348567 0.119574 0.572863 -0.71383
2003-09-08 15:31:54 51°13.6 2°56.1 21.3145 0.116973 0.560368 -0.71383
2003-09-08 15:32:54 51°13.59 2°56.11 21.590927 0.115413 0.553278 -0.71383
2003-09-08 15:33:58 51°13.6 2°56.11 21.919198 0.113229 0.542718 -0.71383
2003-09-08 15:34:58 51°13.6 2°56.11 21.855801 0.111044 0.532215 -0.680121
2003-09-08 15:35:58 51°13.6 2°56.11 22.171596 0.109068 0.522822 -0.71383